Seaside Heights, NJ

6:18 AM EDT on September 16, 2014 (GMT -0400)
O Street | Change Station
CLOSE
Current Station
Personal Weather Station
Location: Seaside Park, NJ
Elevation: 10 ft
Nearby Weather Stations

Elev 10 ft 39.93 °N, 74.08 °W | Updated 5 minutes ago

Partly Cloudy
Partly Cloudy
64.3 °F
Feels Like 64.3 °F
N
2.0
Wind Variable Wind from South
Gusts 8.0 mph

Today
High -- | Low -- °F
--% Chance of Precip.
Yesterday
High -- | Low -- °F
Precip. -- in
6:38 AM 7:03 PM
Waning Gibbous, 47% visible
Pressure 30.01 in
Visibility 10.0 miles
Clouds Few 4200 ft
Scattered Clouds 5000 ft
Dew Point 57 °F
Humidity 77%
Rainfall 0.00 in
Snow Depth Not available.
UV 0 out of 12
Pollen 3.20 out of 12
Air Quality Not available.
Flu Activity Not available.
METAR KMJX 160955Z AUTO 00000KT 10SM FEW042 SCT050 11/09 A3001 RMK AO1

More Conditions Fewer Conditions

Pressure 30.01 in
Visibility 10.0 miles
Clouds Few 4200 ft
Scattered Clouds 5000 ft
Dew Point 57 °F
Humidity 77%
Rainfall 0.00 in
Snow Depth Not available.
UV 0 out of 12
Pollen 3.20 out of 12
Air Quality Not available.
Flu Activity Not available.
METAR KMJX 160955Z AUTO 00000KT 10SM FEW042 SCT050 11/09 A3001 RMK AO1

More Conditions Fewer Conditions

10-Day Weather Forecast

Almanac

Astronomy

Sep. 16, 2014 Rise Set
Actual Time 6:38 AM EDT 7:03 PM EDT
Civil Twilight 6:11 AM EDT 7:30 PM EDT
Nautical Twilight 5:39 AM EDT 8:02 PM EDT
Astronomical Twilight 5:06 AM EDT 8:34 PM EDT
Moon No Moon Rise 2:24 PM EDT
Length of Visible Light 13h 19m
Length of Day
12h 25m
Tomorrow will be 2m 36s shorter.
Waning Gibbous, 47% of the Moon is Illuminated
Today
Waning Gibbous
Sep 24
New
Oct 1
First Quarter
Oct 8
Full
Oct 15
Last Quarter

Today's Extremes

State Highs State Lows

Community

WunderPhotos

Upload Photos

1,753,717 photos uploaded!

WunderBlogs® & News

Nearby

Snow Depth

Station Depth Elevation
No new snow has been reported.

Earthquake Activity

City Distance Mag. Time & Date
No recent earthquake activity has been reported nearby.
Minimum magnitude displayed is 2.5.

Coastal Water Temperatures

Place Temperature
Atlantic City, NJ 72.0 °F

Nearby Weather Stations